Terminal Aerodrome Forecast
Issued by NWS Albuquerque, NM

Home | Current Version | Previous Version | Text Only | Print | Product List | Glossary On
Versions: 1 2 3 4 5 6 7 8 9 10 11 12 13 14 15 16 17
000
FTUS45 KABQ 261740
TAFABQ
TAF
KABQ 261740Z 2618/2718 29006KT P6SM SCT070 SCT130
     FM262100 33010KT P6SM VCTS BKN080CB BKN150
      TEMPO 2621/2701 VRB18G28KT
     FM270100 09015KT P6SM VCTS BKN080CB
     FM270400 06010KT P6SM VCSH OVC090
     FM270900 01007KT P6SM BKN120
     FM271600 32006KT P6SM FEW070 SCT130=

USA.gov is the U.S. government's official web portal to all federal, state and local government web resources and services.